Impacts TAF Board
For situational awareness. Not to be used for flight planning purposes.
IDs:

KTCL - Tuscaloosa Rgnl, AL, US

Issued at 2341 UTC 05 Dec 2020
Updated at 0231 UTC 06 Dec 2020
Potential Impact None Slight Moderate High
Time0153Z 06/03Z 06/04Z 06/05Z 06/06Z 06/07Z 06/08Z 06/09Z 06/10Z 06/11Z 06/12Z 06/13Z 06/14Z 06/15Z>>
Type OBS PRVL PRVL PRVL PRVL PRVL PRVL PRVL
  [TEMP]  
PRVL
  [TEMP]  
PRVL
  [TEMP]  
PRVL
  [TEMP]  
PRVL PRVL PRVL
VIS 10 >6 >6 >6 >6 >6 4 4
  [1]  
4
  [1]  
4
  [1]  
4
  [1]  
4 4 >6
CIG -- -- -- -- -- -- -- --
  [--]  
--
  [--]  
--
  [--]  
--
  [--]  
-- -- 150
Cover CLR FEW FEW FEW FEW FEW FEW FEW
  [FEW]  
FEW
  [FEW]  
FEW
  [FEW]  
FEW
  [FEW]  
FEW FEW BKN
FltCat VFR VFR VFR VFR VFR VFR MVFR MVFR
  [IFR]  
MVFR
  [IFR]  
MVFR
  [IFR]  
MVFR
  [IFR]  
MVFR MVFR VFR
WX -- -- -- -- -- -- BR BR
  [BR]  
BR
  [BR]  
BR
  [BR]  
BR
  [BR]  
BR BR --
WDir VRB VRB VRB VRB VRB VRB VRB VRB
[VRB]
VRB
[VRB]
VRB
[VRB]
VRB
[VRB]
VRB VRB 220
WSpd 0 0 0 0 0 0 0 0
  [0]  
0
  [0]  
0
  [0]  
0
  [0]  
0 0 5
WGst -- -- -- -- -- -- -- --
  [--]  
--
  [--]  
--
  [--]  
--
  [--]  
-- -- --
Raw TAF
KTCL 052341Z 0600/0624 00000KT P6SM FEW250
  FM060800 00000KT 4SM BR FEW250
  TEMPO 0609/0613 1SM BR
  FM061500 22005KT P6SM BKN150


Raw METAR
KTCL 060153Z AUTO 00000KT 10SM CLR 07/05 A3012 RMK AO2 SLP201 T00670050
KTCL 060053Z 00000KT 10SM CLR 08/05 A3012 RMK AO2 SLP201 T00830050
KTCL 052353Z 26003KT 10SM CLR 09/05 A3012 RMK AO2 SLP199 T00940050 10172 20094 50002

METAR Board
Radar Display
Forecast Discussion
For situational awareness. Not to be used for flight planning purposes.